createdAt,value
2022-12-07T00:03:47.072Z,5.00
2022-12-07T00:09:48.687Z,5.20
2022-12-07T00:15:50.181Z,5.70
2022-12-07T00:21:51.713Z,5.30
2022-12-07T00:27:54.533Z,5.23
2022-12-07T00:33:56.243Z,5.35
2022-12-07T00:39:57.786Z,5.72
2022-12-07T00:45:59.440Z,5.83
2022-12-07T00:52:00.974Z,5.70
2022-12-07T00:58:03.199Z,6.00
2022-12-07T01:04:04.950Z,6.13
2022-12-07T01:10:06.877Z,6.85
2022-12-07T01:16:08.862Z,5.97
2022-12-07T01:22:10.473Z,5.85
2022-12-07T01:28:11.974Z,5.23
2022-12-07T01:34:13.471Z,5.78
2022-12-07T01:40:14.947Z,5.93
2022-12-07T01:46:16.442Z,5.80
2022-12-07T01:52:24.250Z,5.95
2022-12-07T01:58:26.012Z,6.50
2022-12-07T02:04:27.674Z,5.82
2022-12-07T02:10:30.352Z,5.28
2022-12-07T02:16:44.136Z,6.00
2022-12-07T02:23:11.672Z,5.43
2022-12-07T02:29:22.630Z,5.53
2022-12-07T02:35:42.764Z,6.00
2022-12-07T02:41:47.471Z,5.43
2022-12-07T02:47:51.906Z,5.63
2022-12-07T02:53:53.417Z,6.43
2022-12-07T03:00:02.015Z,6.17
2022-12-07T03:06:03.896Z,5.65
2022-12-07T03:12:12.698Z,5.57
2022-12-07T03:18:17.186Z,5.00
2022-12-07T03:24:20.708Z,4.68
2022-12-07T03:30:25.115Z,4.53
2022-12-07T03:36:27.418Z,4.38
2022-12-07T03:42:29.794Z,4.47
2022-12-07T03:48:38.070Z,3.97
2022-12-07T03:54:46.519Z,4.82
2022-12-07T04:00:48.186Z,4.77
2022-12-07T04:06:50.036Z,4.60
2022-12-07T04:12:51.553Z,4.60
2022-12-07T04:18:53.102Z,4.77
2022-12-07T04:24:54.606Z,4.93
2022-12-07T04:30:56.169Z,4.13
2022-12-07T04:36:57.802Z,3.90
2022-12-07T04:42:59.263Z,4.75
2022-12-07T04:49:00.831Z,4.47
2022-12-07T04:55:02.435Z,4.30
2022-12-07T05:01:04.122Z,4.37
2022-12-07T05:07:05.677Z,4.10
2022-12-07T05:13:07.257Z,4.57
2022-12-07T05:19:09.266Z,4.60
2022-12-07T05:25:10.953Z,4.28
2022-12-07T05:31:12.588Z,4.67
2022-12-07T05:37:14.140Z,4.53
2022-12-07T05:43:15.609Z,4.07
2022-12-07T05:49:17.208Z,4.47
2022-12-07T05:55:18.697Z,5.10
2022-12-07T06:01:20.209Z,4.90
2022-12-07T06:07:21.785Z,5.13
2022-12-07T06:13:23.467Z,5.22
2022-12-07T06:19:25.016Z,5.17
2022-12-07T06:25:26.528Z,6.13
2022-12-07T06:31:28.198Z,5.67
2022-12-07T06:37:29.765Z,6.10
2022-12-07T06:43:31.277Z,5.85
2022-12-07T06:49:32.791Z,6.80
2022-12-07T06:55:34.305Z,7.43
2022-12-07T07:01:36.091Z,6.37
2022-12-07T07:07:51.902Z,7.70
2022-12-07T07:14:03.070Z,7.13
2022-12-07T07:20:05.223Z,7.30
2022-12-07T07:26:06.901Z,8.25
2022-12-07T07:32:08.647Z,7.40
2022-12-07T07:38:10.386Z,7.53
2022-12-07T07:44:11.956Z,7.20
2022-12-07T07:50:13.506Z,8.03
2022-12-07T07:56:15.066Z,7.53
2022-12-07T08:02:17.975Z,7.03
2022-12-07T08:08:19.521Z,7.07
2022-12-07T08:14:21.074Z,7.53
2022-12-07T08:20:23.161Z,7.57
2022-12-07T08:26:24.755Z,7.88
2022-12-07T08:32:26.261Z,7.57
2022-12-07T08:38:31.673Z,6.75
2022-12-07T08:44:33.948Z,6.97
2022-12-07T08:50:36.857Z,6.80
2022-12-07T08:56:38.769Z,6.22
2022-12-07T09:02:40.428Z,5.87
2022-12-07T09:08:44.564Z,5.35
2022-12-07T09:14:46.084Z,5.32
2022-12-07T09:20:47.626Z,4.97
2022-12-07T09:26:49.111Z,4.40
2022-12-07T09:32:50.652Z,4.60
2022-12-07T09:38:52.191Z,5.50
2022-12-07T09:44:54.052Z,4.88
2022-12-07T09:50:57.669Z,4.80
2022-12-07T09:56:59.610Z,4.57
2022-12-07T10:03:02.177Z,5.07
2022-12-07T10:09:09.767Z,4.68
2022-12-07T10:15:11.307Z,5.68
2022-12-07T10:21:15.114Z,5.50
2022-12-07T10:27:19.114Z,6.20
2022-12-07T10:33:30.204Z,4.33
2022-12-07T10:39:40.923Z,4.55
2022-12-07T10:46:13.217Z,4.85
2022-12-07T10:52:25.006Z,4.40
2022-12-07T10:58:50.383Z,4.50
2022-12-07T11:05:07.419Z,4.90
2022-12-07T11:11:21.327Z,4.30
2022-12-07T11:17:29.775Z,3.55
2022-12-07T11:24:09.788Z,3.40
2022-12-07T11:30:16.501Z,3.90
2022-12-07T11:36:37.089Z,3.50
2022-12-07T11:42:42.433Z,4.05
2022-12-07T11:49:03.177Z,3.80
2022-12-07T11:55:06.135Z,4.53
2022-12-07T12:01:26.384Z,4.00
2022-12-07T12:20:22.280Z,3.38
2022-12-07T12:26:28.234Z,3.37
2022-12-07T12:32:43.247Z,3.20
2022-12-07T12:38:59.791Z,2.43
2022-12-07T12:45:17.566Z,2.40
2022-12-07T12:51:37.540Z,2.33
2022-12-07T12:57:39.048Z,2.03
2022-12-07T13:03:52.304Z,1.70
2022-12-07T13:09:53.958Z,1.53
2022-12-07T13:16:15.494Z,1.55
2022-12-07T13:22:32.665Z,1.42
2022-12-07T13:28:36.817Z,1.30
2022-12-07T13:34:42.290Z,1.30
2022-12-07T13:40:43.839Z,1.20
2022-12-07T13:46:52.535Z,1.10
2022-12-07T13:53:00.688Z,1.17
2022-12-07T13:59:02.556Z,1.30
2022-12-07T14:05:30.411Z,1.60
2022-12-07T14:11:32.299Z,1.77
2022-12-07T14:17:34.409Z,1.60
2022-12-07T14:23:36.465Z,1.50
2022-12-07T14:29:38.539Z,1.60
2022-12-07T14:35:41.415Z,1.45
2022-12-07T14:41:51.919Z,1.30
2022-12-07T14:54:17.827Z,1.65
2022-12-07T15:00:21.328Z,1.30
2022-12-07T15:06:22.873Z,1.52
2022-12-07T15:12:25.863Z,1.17
2022-12-07T15:18:27.373Z,1.30
2022-12-07T15:24:28.985Z,1.50
2022-12-07T15:30:30.517Z,1.30
2022-12-07T15:36:32.948Z,1.25
2022-12-07T15:42:34.466Z,1.20
2022-12-07T15:48:35.991Z,1.08
2022-12-07T15:54:37.650Z,1.40
2022-12-07T16:00:39.169Z,1.17
2022-12-07T16:06:40.741Z,1.23
2022-12-07T16:12:42.263Z,1.40
2022-12-07T16:18:44.666Z,1.63
2022-12-07T16:24:46.327Z,1.80
2022-12-07T16:30:47.864Z,2.00
2022-12-07T16:37:05.804Z,2.28
2022-12-07T16:43:08.065Z,2.23
2022-12-07T16:49:13.671Z,2.80
2022-12-07T16:55:16.188Z,2.45
2022-12-07T17:01:22.665Z,2.50
2022-12-07T17:07:24.190Z,2.80
2022-12-07T17:13:44.339Z,2.30
2022-12-07T17:19:48.743Z,2.20
2022-12-07T17:25:50.242Z,2.40
2022-12-07T17:31:52.242Z,2.23
2022-12-07T17:37:53.891Z,2.40
2022-12-07T17:43:55.372Z,2.23
2022-12-07T17:49:58.593Z,2.30
2022-12-07T17:56:27.652Z,2.20
2022-12-07T18:02:24.941Z,2.47
2022-12-07T18:08:26.617Z,2.50
2022-12-07T18:14:28.295Z,3.17
2022-12-07T18:20:29.807Z,3.22
2022-12-07T18:26:32.897Z,3.05
2022-12-07T18:32:34.439Z,2.17
2022-12-07T18:38:36.052Z,2.75
2022-12-07T18:44:37.596Z,2.83
2022-12-07T18:50:39.226Z,2.58
2022-12-07T18:56:40.802Z,2.67
2022-12-07T19:02:42.394Z,2.70
2022-12-07T19:08:43.961Z,2.55
2022-12-07T19:14:45.604Z,2.63
2022-12-07T19:20:47.148Z,2.70
2022-12-07T19:26:48.837Z,2.60
2022-12-07T19:32:50.389Z,2.47
2022-12-07T19:38:52.017Z,2.65
2022-12-07T19:44:53.545Z,2.53
2022-12-07T19:50:55.067Z,2.50
2022-12-07T19:56:57.015Z,2.90
2022-12-07T20:02:58.694Z,3.07
2022-12-07T20:09:00.339Z,3.47
2022-12-07T20:15:02.248Z,2.87
2022-12-07T20:21:04.132Z,2.83
2022-12-07T20:27:05.996Z,3.10
2022-12-07T20:33:07.727Z,2.77
2022-12-07T20:39:09.367Z,2.95
2022-12-07T20:45:12.144Z,3.40
2022-12-07T20:51:13.682Z,3.80
2022-12-07T20:57:15.320Z,2.97
2022-12-07T21:03:16.839Z,3.27
2022-12-07T21:09:19.715Z,3.35
2022-12-07T21:15:21.243Z,3.23
2022-12-07T21:21:22.911Z,3.58
2022-12-07T21:27:24.449Z,3.10
2022-12-07T21:33:26.116Z,3.50
2022-12-07T21:39:27.673Z,3.47
2022-12-07T21:45:29.269Z,3.43
2022-12-07T21:51:31.290Z,2.50
2022-12-07T21:57:32.909Z,2.90
2022-12-07T22:03:34.463Z,2.60
2022-12-07T22:09:35.986Z,3.22
2022-12-07T22:15:40.235Z,2.57
2022-12-07T22:21:41.828Z,2.90
2022-12-07T22:27:43.342Z,2.63
2022-12-07T22:33:44.934Z,3.03
2022-12-07T22:39:46.637Z,2.78
2022-12-07T22:45:57.650Z,2.90
2022-12-07T22:51:59.254Z,3.10
2022-12-07T22:58:00.919Z,2.92
2022-12-07T23:04:02.707Z,2.87
2022-12-07T23:10:05.470Z,3.50
2022-12-07T23:16:11.757Z,2.90
2022-12-07T23:22:13.334Z,2.78
2022-12-07T23:28:14.915Z,3.25
2022-12-07T23:34:16.563Z,3.27
2022-12-07T23:40:18.113Z,3.08
2022-12-07T23:46:20.987Z,3.33
2022-12-07T23:52:22.621Z,3.17
2022-12-07T23:58:24.176Z,3.17
